Aviation Forecast - National Meteorological Service of Belize
Hurricane Tips
  •  Fill sinks, bathtub and large containers with water as an extra supply for washing and flushing.
  •  During the hurricane season, fisher folks are strongly advised to stay informed via radio, listen to the weather bulletin before venturing out to sea. Move your boat to safe harbor early.
  •  Prepare your car in case of evacuation. Fill your tank and check your tires.
  •  Upon alert, farmers should harvest crops which can be stored, consumed and sold.
 Monday, December 11, 2017     |     Print Forecast

From 1200, December 11, 2017   |   To 2400, December 11, 2017

All Heights in the forecast are above sea level. PS= Positive, MS= Minus. All times are UTC.

MAINLY FAIR, COOL AND DRY CONDITIONS WILL PREVAIL...
Height (ft) Wind (True Degrees and Knots) Temperature (°C)
Surface 34010 26
2,000 33020 15
5,000 35010 10
10,000 05010 07
FEW/SCT CU BASES 1,400-2,400FT
SCT/BKN SC BASES LAYERED 4,000-4,500FT
GREATER THAN 10KM. REDUCED TO 5-8KM IN SHRA.
VARIABLY CLOUDY WITH LITTLE OR NO RAINFALL.
LOW CLOUDS COVERING HILLS. MOD TURB NEAR SURFACE.
RISING
SIMILAR WEATHER CONDITIONS TO PREVAIL.
TAF MZBZ 111045Z 1112/1212 34010KT 9999 FEW022 SCT040=
Belize
05:40 December 11, 2017

Forecaster: Young, Shanea

Updated at: Dec 11, 2017 05:48 AM